Terminal Aerodrome Forecast
Issued by NWS

Home | Current Version | Previous Version | Text Only | Print | Product List | Glossary On
Versions: 1 2 3 4 5 6 7 8 9 10 11 12
000
FTUS46 KHNX 271142
TAFVIS
TAF
KVIS 271142Z 2712/2812 VRB03KT 3SM BR SCT200
     FM271900 30007KT P6SM SCT050 BKN080
     FM280100 31011KT P6SM VCSH SCT030 BKN040
     FM280900 31007KT P6SM BKN030=

USA.gov is the U.S. government's official web portal to all federal, state and local government web resources and services.